sensor_id;sensor_type;location;lat;lon;timestamp;pressure;altitude;pressure_sealevel;temperature
70668;BMP280;58242;51.250;-1.118;2023-03-14T00:00:54;97423.44;;;15.46
70668;BMP280;58242;51.250;-1.118;2023-03-14T00:03:19;97424.19;;;15.46
70668;BMP280;58242;51.250;-1.118;2023-03-14T00:05:44;97428.41;;;15.47
70668;BMP280;58242;51.250;-1.118;2023-03-14T00:08:10;97428.41;;;15.47
70668;BMP280;58242;51.250;-1.118;2023-03-14T00:10:36;97428.81;;;15.46
70668;BMP280;58242;51.250;-1.118;2023-03-14T00:13:02;97428.06;;;15.45
70668;BMP280;58242;51.250;-1.118;2023-03-14T00:15:27;97431.94;;;15.44
70668;BMP280;58242;51.250;-1.118;2023-03-14T00:17:52;97434.28;;;15.42
70668;BMP280;58242;51.250;-1.118;2023-03-14T00:20:18;97439.66;;;15.42
70668;BMP280;58242;51.250;-1.118;2023-03-14T00:22:43;97438.56;;;15.40
70668;BMP280;58242;51.250;-1.118;2023-03-14T00:25:11;97456.97;;;15.41
70668;BMP280;58242;51.250;-1.118;2023-03-14T00:27:36;97450.50;;;15.39
70668;BMP280;58242;51.250;-1.118;2023-03-14T00:30:02;97455.88;;;15.39
70668;BMP280;58242;51.250;-1.118;2023-03-14T00:32:28;97460.50;;;15.39
70668;BMP280;58242;51.250;-1.118;2023-03-14T00:34:54;97562.00;;;15.38
70668;BMP280;58242;51.250;-1.118;2023-03-14T00:37:19;97579.81;;;15.32
70668;BMP280;58242;51.250;-1.118;2023-03-14T00:39:44;97585.78;;;15.21
70668;BMP280;58242;51.250;-1.118;2023-03-14T00:42:10;97591.81;;;15.06
70668;BMP280;58242;51.250;-1.118;2023-03-14T00:44:35;97588.53;;;14.95
70668;BMP280;58242;51.250;-1.118;2023-03-14T00:47:01;97610.19;;;14.85
70668;BMP280;58242;51.250;-1.118;2023-03-14T00:49:26;97616.13;;;14.73
70668;BMP280;58242;51.250;-1.118;2023-03-14T00:51:52;97634.69;;;14.64
70668;BMP280;58242;51.250;-1.118;2023-03-14T00:54:18;97639.03;;;14.55
70668;BMP280;58242;51.250;-1.118;2023-03-14T00:56:44;97652.28;;;14.43
70668;BMP280;58242;51.250;-1.118;2023-03-14T00:59:09;97652.00;;;14.34
70668;BMP280;58242;51.250;-1.118;2023-03-14T01:01:34;97661.31;;;14.26
70668;BMP280;58242;51.250;-1.118;2023-03-14T01:04:00;97674.03;;;14.22
70668;BMP280;58242;51.250;-1.118;2023-03-14T01:06:27;97686.03;;;14.15
70668;BMP280;58242;51.250;-1.118;2023-03-14T01:08:53;97689.91;;;14.10
70668;BMP280;58242;51.250;-1.118;2023-03-14T01:11:24;97696.09;;;14.07
70668;BMP280;58242;51.250;-1.118;2023-03-14T01:13:50;97704.56;;;14.02
70668;BMP280;58242;51.250;-1.118;2023-03-14T01:16:17;97716.53;;;13.98
70668;BMP280;58242;51.250;-1.118;2023-03-14T01:18:44;97728.47;;;13.94
70668;BMP280;58242;51.250;-1.118;2023-03-14T01:21:12;97746.16;;;13.88
70668;BMP280;58242;51.250;-1.118;2023-03-14T01:23:38;97750.81;;;13.84
70668;BMP280;58242;51.250;-1.118;2023-03-14T01:26:03;97760.03;;;13.83
70668;BMP280;58242;51.250;-1.118;2023-03-14T01:28:29;97766.56;;;13.79
70668;BMP280;58242;51.250;-1.118;2023-03-14T01:30:54;97776.94;;;13.77
70668;BMP280;58242;51.250;-1.118;2023-03-14T01:33:19;97778.84;;;13.76
70668;BMP280;58242;51.250;-1.118;2023-03-14T01:35:45;97788.50;;;13.70
70668;BMP280;58242;51.250;-1.118;2023-03-14T01:38:10;97785.47;;;13.65
70668;BMP280;58242;51.250;-1.118;2023-03-14T01:40:42;97788.19;;;13.58
70668;BMP280;58242;51.250;-1.118;2023-03-14T01:43:19;97796.34;;;13.48
70668;BMP280;58242;51.250;-1.118;2023-03-14T01:48:38;97814.84;;;13.33
70668;BMP280;58242;51.250;-1.118;2023-03-14T01:51:10;97820.25;;;13.29
70668;BMP280;58242;51.250;-1.118;2023-03-14T01:53:38;97837.13;;;13.23
70668;BMP280;58242;51.250;-1.118;2023-03-14T01:56:04;97855.94;;;13.16
70668;BMP280;58242;51.250;-1.118;2023-03-14T01:58:32;97865.56;;;13.10
70668;BMP280;58242;51.250;-1.118;2023-03-14T02:01:01;97872.09;;;13.02
70668;BMP280;58242;51.250;-1.118;2023-03-14T02:03:29;97876.34;;;12.97
70668;BMP280;58242;51.250;-1.118;2023-03-14T02:05:58;97882.13;;;12.88
70668;BMP280;58242;51.250;-1.118;2023-03-14T02:08:26;97889.03;;;12.82
70668;BMP280;58242;51.250;-1.118;2023-03-14T02:10:52;97898.63;;;12.77
70668;BMP280;58242;51.250;-1.118;2023-03-14T02:13:19;97909.38;;;12.70
70668;BMP280;58242;51.250;-1.118;2023-03-14T02:15:45;97915.50;;;12.57
70668;BMP280;58242;51.250;-1.118;2023-03-14T02:18:12;97930.81;;;12.49
70668;BMP280;58242;51.250;-1.118;2023-03-14T02:21:19;97946.16;;;12.35
70668;BMP280;58242;51.250;-1.118;2023-03-14T02:26:43;97969.88;;;12.20
70668;BMP280;58242;51.250;-1.118;2023-03-14T02:29:09;97978.28;;;12.15
70668;BMP280;58242;51.250;-1.118;2023-03-14T02:31:35;97981.72;;;12.12
70668;BMP280;58242;51.250;-1.118;2023-03-14T02:34:01;97976.75;;;12.07
70668;BMP280;58242;51.250;-1.118;2023-03-14T02:36:27;97991.25;;;12.03
70668;BMP280;58242;51.250;-1.118;2023-03-14T02:39:05;97993.94;;;11.99
70668;BMP280;58242;51.250;-1.118;2023-03-14T02:41:31;98010.75;;;11.93
70668;BMP280;58242;51.250;-1.118;2023-03-14T02:43:57;98007.69;;;11.84
70668;BMP280;58242;51.250;-1.118;2023-03-14T02:46:22;98023.31;;;11.72
70668;BMP280;58242;51.250;-1.118;2023-03-14T02:48:51;98024.81;;;11.63
70668;BMP280;58242;51.250;-1.118;2023-03-14T02:51:19;98033.19;;;11.55
70668;BMP280;58242;51.250;-1.118;2023-03-14T02:53:45;98035.09;;;11.47
70668;BMP280;58242;51.250;-1.118;2023-03-14T02:56:10;98042.31;;;11.40
70668;BMP280;58242;51.250;-1.118;2023-03-14T02:58:36;98064.06;;;11.35
70668;BMP280;58242;51.250;-1.118;2023-03-14T03:01:01;98068.91;;;11.23
70668;BMP280;58242;51.250;-1.118;2023-03-14T03:03:26;98063.94;;;11.15
70668;BMP280;58242;51.250;-1.118;2023-03-14T03:05:54;98074.19;;;11.06
70668;BMP280;58242;51.250;-1.118;2023-03-14T03:08:20;98089.41;;;10.99
70668;BMP280;58242;51.250;-1.118;2023-03-14T03:10:46;98100.03;;;10.89
70668;BMP280;58242;51.250;-1.118;2023-03-14T03:13:11;98107.97;;;10.82
70668;BMP280;58242;51.250;-1.118;2023-03-14T03:15:37;98114.38;;;10.74
70668;BMP280;58242;51.250;-1.118;2023-03-14T03:18:03;98118.56;;;10.68
70668;BMP280;58242;51.250;-1.118;2023-03-14T03:20:28;98123.44;;;10.63
70668;BMP280;58242;51.250;-1.118;2023-03-14T03:22:53;98127.25;;;10.59
70668;BMP280;58242;51.250;-1.118;2023-03-14T03:25:19;98137.13;;;10.55
70668;BMP280;58242;51.250;-1.118;2023-03-14T03:27:44;98143.19;;;10.52
70668;BMP280;58242;51.250;-1.118;2023-03-14T03:30:10;98154.63;;;10.49
70668;BMP280;58242;51.250;-1.118;2023-03-14T03:32:35;98153.81;;;10.45
70668;BMP280;58242;51.250;-1.118;2023-03-14T03:35:02;98162.19;;;10.40
70668;BMP280;58242;51.250;-1.118;2023-03-14T03:37:30;98163.28;;;10.36
70668;BMP280;58242;51.250;-1.118;2023-03-14T03:39:55;98161.31;;;10.33
70668;BMP280;58242;51.250;-1.118;2023-03-14T03:42:21;98168.94;;;10.31
70668;BMP280;58242;51.250;-1.118;2023-03-14T03:44:46;98181.88;;;10.29
70668;BMP280;58242;51.250;-1.118;2023-03-14T03:47:12;98190.22;;;10.24
70668;BMP280;58242;51.250;-1.118;2023-03-14T03:49:37;98190.88;;;10.18
70668;BMP280;58242;51.250;-1.118;2023-03-14T03:52:03;98176.38;;;10.15
70668;BMP280;58242;51.250;-1.118;2023-03-14T03:54:28;98194.25;;;10.11
70668;BMP280;58242;51.250;-1.118;2023-03-14T03:56:56;98184.69;;;10.10
70668;BMP280;58242;51.250;-1.118;2023-03-14T03:59:22;98188.84;;;10.05
70668;BMP280;58242;51.250;-1.118;2023-03-14T04:01:47;98198.28;;;9.99
70668;BMP280;58242;51.250;-1.118;2023-03-14T04:04:13;98199.78;;;9.96
70668;BMP280;58242;51.250;-1.118;2023-03-14T04:06:39;98212.72;;;9.94
70668;BMP280;58242;51.250;-1.118;2023-03-14T04:09:06;98201.63;;;9.92
70668;BMP280;58242;51.250;-1.118;2023-03-14T04:11:32;98208.09;;;9.91
70668;BMP280;58242;51.250;-1.118;2023-03-14T04:13:57;98215.28;;;9.88
70668;BMP280;58242;51.250;-1.118;2023-03-14T04:16:24;98227.88;;;9.87
70668;BMP280;58242;51.250;-1.118;2023-03-14T04:18:50;98230.47;;;9.84
70668;BMP280;58242;51.250;-1.118;2023-03-14T04:21:16;98236.59;;;9.84
70668;BMP280;58242;51.250;-1.118;2023-03-14T04:23:41;98241.53;;;9.82
70668;BMP280;58242;51.250;-1.118;2023-03-14T04:26:06;98259.44;;;9.82
70668;BMP280;58242;51.250;-1.118;2023-03-14T04:28:32;98260.94;;;9.79
70668;BMP280;58242;51.250;-1.118;2023-03-14T04:30:57;98267.00;;;9.80
70668;BMP280;58242;51.250;-1.118;2023-03-14T04:33:23;98276.16;;;9.79
70668;BMP280;58242;51.250;-1.118;2023-03-14T04:35:48;98274.28;;;9.79
70668;BMP280;58242;51.250;-1.118;2023-03-14T04:38:15;98275.00;;;9.80
70668;BMP280;58242;51.250;-1.118;2023-03-14T04:40:41;98287.97;;;9.78
70668;BMP280;58242;51.250;-1.118;2023-03-14T04:43:07;98290.97;;;9.76
70668;BMP280;58242;51.250;-1.118;2023-03-14T04:45:33;98306.22;;;9.76
70668;BMP280;58242;51.250;-1.118;2023-03-14T04:47:58;98305.47;;;9.75
70668;BMP280;58242;51.250;-1.118;2023-03-14T04:50:23;98299.66;;;9.73
70668;BMP280;58242;51.250;-1.118;2023-03-14T04:52:49;98301.56;;;9.73
70668;BMP280;58242;51.250;-1.118;2023-03-14T04:55:14;98299.28;;;9.72
70668;BMP280;58242;51.250;-1.118;2023-03-14T04:57:39;98310.28;;;9.70
70668;BMP280;58242;51.250;-1.118;2023-03-14T05:00:05;98320.19;;;9.70
70668;BMP280;58242;51.250;-1.118;2023-03-14T05:02:34;98324.25;;;9.60
70668;BMP280;58242;51.250;-1.118;2023-03-14T05:04:59;98327.31;;;9.62
70668;BMP280;58242;51.250;-1.118;2023-03-14T05:07:25;98340.25;;;9.60
70668;BMP280;58242;51.250;-1.118;2023-03-14T05:09:50;98337.59;;;9.60
70668;BMP280;58242;51.250;-1.118;2023-03-14T05:12:16;98354.69;;;9.59
70668;BMP280;58242;51.250;-1.118;2023-03-14T05:14:41;98347.03;;;9.58
70668;BMP280;58242;51.250;-1.118;2023-03-14T05:17:07;98348.53;;;9.56
70668;BMP280;58242;51.250;-1.118;2023-03-14T05:19:32;98366.09;;;9.57
70668;BMP280;58242;51.250;-1.118;2023-03-14T05:21:57;98375.56;;;9.54
70668;BMP280;58242;51.250;-1.118;2023-03-14T05:24:23;98387.28;;;9.50
70668;BMP280;58242;51.250;-1.118;2023-03-14T05:26:48;98394.88;;;9.48
70668;BMP280;58242;51.250;-1.118;2023-03-14T05:29:13;98396.72;;;9.44
70668;BMP280;58242;51.250;-1.118;2023-03-14T05:31:39;98404.31;;;9.42
70668;BMP280;58242;51.250;-1.118;2023-03-14T05:34:04;98407.31;;;9.40
70668;BMP280;58242;51.250;-1.118;2023-03-14T05:36:29;98419.47;;;9.38
70668;BMP280;58242;51.250;-1.118;2023-03-14T05:38:54;98417.94;;;9.37
70668;BMP280;58242;51.250;-1.118;2023-03-14T05:41:20;98415.97;;;9.34
70668;BMP280;58242;51.250;-1.118;2023-03-14T05:43:45;98426.22;;;9.32
70668;BMP280;58242;51.250;-1.118;2023-03-14T05:46:10;98428.81;;;9.29
70668;BMP280;58242;51.250;-1.118;2023-03-14T05:48:36;98438.28;;;9.26
70668;BMP280;58242;51.250;-1.118;2023-03-14T05:51:01;98445.44;;;9.23
70668;BMP280;58242;51.250;-1.118;2023-03-14T05:53:27;98453.44;;;9.23
70668;BMP280;58242;51.250;-1.118;2023-03-14T05:55:55;98462.91;;;9.20
70668;BMP280;58242;51.250;-1.118;2023-03-14T05:58:20;98470.13;;;9.20
70668;BMP280;58242;51.250;-1.118;2023-03-14T06:00:45;98468.94;;;9.17
70668;BMP280;58242;51.250;-1.118;2023-03-14T06:03:11;98467.81;;;9.18
70668;BMP280;58242;51.250;-1.118;2023-03-14T06:05:36;98480.38;;;9.18
70668;BMP280;58242;51.250;-1.118;2023-03-14T06:08:01;98478.81;;;9.17
70668;BMP280;58242;51.250;-1.118;2023-03-14T06:10:27;98478.81;;;9.17
70668;BMP280;58242;51.250;-1.118;2023-03-14T06:12:52;98490.19;;;9.14
70668;BMP280;58242;51.250;-1.118;2023-03-14T06:15:18;98494.75;;;9.13
70668;BMP280;58242;51.250;-1.118;2023-03-14T06:17:44;98494.75;;;9.13
70668;BMP280;58242;51.250;-1.118;2023-03-14T06:20:10;98507.28;;;9.13
70668;BMP280;58242;51.250;-1.118;2023-03-14T06:22:35;98519.50;;;9.14
70668;BMP280;58242;51.250;-1.118;2023-03-14T06:25:00;98514.97;;;9.14
70668;BMP280;58242;51.250;-1.118;2023-03-14T06:27:26;98522.19;;;9.14
70668;BMP280;58242;51.250;-1.118;2023-03-14T06:29:51;98540.84;;;9.14
70668;BMP280;58242;51.250;-1.118;2023-03-14T06:32:16;98539.72;;;9.15
70668;BMP280;58242;51.250;-1.118;2023-03-14T06:34:43;98546.94;;;9.14
70668;BMP280;58242;51.250;-1.118;2023-03-14T06:37:08;98554.16;;;9.14
70668;BMP280;58242;51.250;-1.118;2023-03-14T06:39:33;98558.00;;;9.16
70668;BMP280;58242;51.250;-1.118;2023-03-14T06:41:59;98561.13;;;9.18
70668;BMP280;58242;51.250;-1.118;2023-03-14T06:44:24;98571.41;;;9.20
70668;BMP280;58242;51.250;-1.118;2023-03-14T06:46:49;98567.63;;;9.21
70668;BMP280;58242;51.250;-1.118;2023-03-14T06:49:15;98576.06;;;9.23
70668;BMP280;58242;51.250;-1.118;2023-03-14T06:51:40;98570.38;;;9.24
70668;BMP280;58242;51.250;-1.118;2023-03-14T06:54:05;98569.69;;;9.27
70668;BMP280;58242;51.250;-1.118;2023-03-14T06:56:31;98567.44;;;9.29
70668;BMP280;58242;51.250;-1.118;2023-03-14T06:58:56;98589.53;;;9.29
70668;BMP280;58242;51.250;-1.118;2023-03-14T07:01:25;98595.28;;;9.31
70668;BMP280;58242;51.250;-1.118;2023-03-14T07:03:51;98608.00;;;9.38
70668;BMP280;58242;51.250;-1.118;2023-03-14T07:06:17;98606.19;;;9.41
70668;BMP280;58242;51.250;-1.118;2023-03-14T07:08:42;98614.25;;;9.45
70668;BMP280;58242;51.250;-1.118;2023-03-14T07:11:08;98626.63;;;9.53
70668;BMP280;58242;51.250;-1.118;2023-03-14T07:13:36;98628.97;;;9.57
70668;BMP280;58242;51.250;-1.118;2023-03-14T07:16:01;98639.66;;;9.57
70668;BMP280;58242;51.250;-1.118;2023-03-14T07:18:26;98649.66;;;9.60
70668;BMP280;58242;51.250;-1.118;2023-03-14T07:20:52;98652.38;;;9.64
70668;BMP280;58242;51.250;-1.118;2023-03-14T07:23:17;98666.91;;;9.66
70668;BMP280;58242;51.250;-1.118;2023-03-14T07:25:42;98673.88;;;9.71
70668;BMP280;58242;51.250;-1.118;2023-03-14T07:28:07;98683.94;;;9.77
70668;BMP280;58242;51.250;-1.118;2023-03-14T07:30:33;98695.13;;;9.82
70668;BMP280;58242;51.250;-1.118;2023-03-14T07:32:58;98710.94;;;9.91
70668;BMP280;58242;51.250;-1.118;2023-03-14T07:35:23;98708.41;;;9.97
70668;BMP280;58242;51.250;-1.118;2023-03-14T07:37:49;98719.22;;;10.04
70668;BMP280;58242;51.250;-1.118;2023-03-14T07:40:14;98724.34;;;10.12
70668;BMP280;58242;51.250;-1.118;2023-03-14T07:42:41;98728.25;;;10.18
70668;BMP280;58242;51.250;-1.118;2023-03-14T07:45:07;98731.84;;;10.25
70668;BMP280;58242;51.250;-1.118;2023-03-14T07:47:33;98727.41;;;10.33
70668;BMP280;58242;51.250;-1.118;2023-03-14T07:49:58;98737.53;;;10.43
70668;BMP280;58242;51.250;-1.118;2023-03-14T07:52:23;98760.66;;;10.54
70668;BMP280;58242;51.250;-1.118;2023-03-14T07:54:49;98766.56;;;10.62
70668;BMP280;58242;51.250;-1.118;2023-03-14T07:57:14;98767.81;;;10.68
70668;BMP280;58242;51.250;-1.118;2023-03-14T07:59:40;98778.28;;;10.77
70668;BMP280;58242;51.250;-1.118;2023-03-14T08:02:05;98781.00;;;10.80
70668;BMP280;58242;51.250;-1.118;2023-03-14T08:04:35;98795.63;;;10.86
70668;BMP280;58242;51.250;-1.118;2023-03-14T08:07:01;98804.91;;;10.92
70668;BMP280;58242;51.250;-1.118;2023-03-14T08:09:27;98812.22;;;10.94
70668;BMP280;58242;51.250;-1.118;2023-03-14T08:11:52;98828.31;;;10.98
70668;BMP280;58242;51.250;-1.118;2023-03-14T08:14:17;98836.00;;;10.99
70668;BMP280;58242;51.250;-1.118;2023-03-14T08:16:43;98836.41;;;11.01
70668;BMP280;58242;51.250;-1.118;2023-03-14T08:19:08;98844.13;;;11.06
70668;BMP280;58242;51.250;-1.118;2023-03-14T08:21:33;98865.94;;;11.08
70668;BMP280;58242;51.250;-1.118;2023-03-14T08:23:59;98868.69;;;11.11
70668;BMP280;58242;51.250;-1.118;2023-03-14T08:26:25;98864.94;;;11.16
70668;BMP280;58242;51.250;-1.118;2023-03-14T08:28:51;98878.03;;;11.21
70668;BMP280;58242;51.250;-1.118;2023-03-14T08:31:16;98881.63;;;11.28
70668;BMP280;58242;51.250;-1.118;2023-03-14T08:33:41;98908.16;;;11.36
70668;BMP280;58242;51.250;-1.118;2023-03-14T08:36:07;98912.78;;;11.39
70668;BMP280;58242;51.250;-1.118;2023-03-14T08:38:32;98936.47;;;11.37
70668;BMP280;58242;51.250;-1.118;2023-03-14T08:40:58;98934.13;;;11.36
70668;BMP280;58242;51.250;-1.118;2023-03-14T08:43:25;98947.56;;;11.39
70668;BMP280;58242;51.250;-1.118;2023-03-14T08:45:51;98948.78;;;11.42
70668;BMP280;58242;51.250;-1.118;2023-03-14T08:48:16;98958.00;;;11.44
70668;BMP280;58242;51.250;-1.118;2023-03-14T08:50:41;98969.19;;;11.49
70668;BMP280;58242;51.250;-1.118;2023-03-14T08:53:07;98980.81;;;11.57
70668;BMP280;58242;51.250;-1.118;2023-03-14T08:55:32;98984.31;;;11.61
70668;BMP280;58242;51.250;-1.118;2023-03-14T08:57:57;98995.88;;;11.64
70668;BMP280;58242;51.250;-1.118;2023-03-14T09:00:23;98997.81;;;11.67
70668;BMP280;58242;51.250;-1.118;2023-03-14T09:02:48;99008.53;;;11.67
70668;BMP280;58242;51.250;-1.118;2023-03-14T09:05:14;99008.09;;;11.65
70668;BMP280;58242;51.250;-1.118;2023-03-14T09:07:40;99011.22;;;11.67
70668;BMP280;58242;51.250;-1.118;2023-03-14T09:10:07;99025.78;;;11.70
70668;BMP280;58242;51.250;-1.118;2023-03-14T09:12:32;99026.63;;;11.74
70668;BMP280;58242;51.250;-1.118;2023-03-14T09:14:57;99042.34;;;11.75
70668;BMP280;58242;51.250;-1.118;2023-03-14T09:17:23;99047.03;;;11.81
70668;BMP280;58242;51.250;-1.118;2023-03-14T09:19:48;99057.88;;;11.88
70668;BMP280;58242;51.250;-1.118;2023-03-14T09:22:13;99072.09;;;11.92
70668;BMP280;58242;51.250;-1.118;2023-03-14T09:24:40;99071.75;;;11.94
70668;BMP280;58242;51.250;-1.118;2023-03-14T09:27:05;99079.34;;;11.92
70668;BMP280;58242;51.250;-1.118;2023-03-14T09:29:31;99114.88;;;11.89
70668;BMP280;58242;51.250;-1.118;2023-03-14T09:31:57;99120.94;;;11.86
70668;BMP280;58242;51.250;-1.118;2023-03-14T09:34:23;99123.19;;;11.84
70668;BMP280;58242;51.250;-1.118;2023-03-14T09:36:48;99134.75;;;11.88
70668;BMP280;58242;51.250;-1.118;2023-03-14T09:39:14;99144.78;;;11.91
70668;BMP280;58242;51.250;-1.118;2023-03-14T09:41:42;99145.63;;;11.95
70668;BMP280;58242;51.250;-1.118;2023-03-14T09:44:10;99160.84;;;11.91
70668;BMP280;58242;51.250;-1.118;2023-03-14T09:46:39;99171.38;;;12.02
70668;BMP280;58242;51.250;-1.118;2023-03-14T09:49:17;99174.75;;;12.18
70668;BMP280;58242;51.250;-1.118;2023-03-14T09:51:45;99189.06;;;12.25
70668;BMP280;58242;51.250;-1.118;2023-03-14T09:54:45;99193.06;;;12.34
70668;BMP280;58242;51.250;-1.118;2023-03-14T09:57:13;99209.09;;;12.31
70668;BMP280;58242;51.250;-1.118;2023-03-14T09:59:42;99208.25;;;12.27
70668;BMP280;58242;51.250;-1.118;2023-03-14T10:02:19;99218.19;;;12.27
70668;BMP280;58242;51.250;-1.118;2023-03-14T10:04:46;99230.16;;;12.32
70668;BMP280;58242;51.250;-1.118;2023-03-14T10:07:21;99229.88;;;12.37
70668;BMP280;58242;51.250;-1.118;2023-03-14T10:09:49;99247.66;;;12.45
70668;BMP280;58242;51.250;-1.118;2023-03-14T10:12:16;99259.34;;;12.56
70668;BMP280;58242;51.250;-1.118;2023-03-14T10:15:04;99268.59;;;12.77
70668;BMP280;58242;51.250;-1.118;2023-03-14T10:17:29;99273.25;;;13.01
70668;BMP280;58242;51.250;-1.118;2023-03-14T10:19:57;99270.63;;;13.27
70668;BMP280;58242;51.250;-1.118;2023-03-14T10:22:26;99274.78;;;13.46
70668;BMP280;58242;51.250;-1.118;2023-03-14T10:24:56;99285.44;;;13.65
70668;BMP280;58242;51.250;-1.118;2023-03-14T10:27:31;99294.09;;;14.02
70668;BMP280;58242;51.250;-1.118;2023-03-14T10:30:03;99294.78;;;14.53
70668;BMP280;58242;51.250;-1.118;2023-03-14T10:32:34;99293.81;;;15.00
70668;BMP280;58242;51.250;-1.118;2023-03-14T10:37:34;99301.47;;;15.82
70668;BMP280;58242;51.250;-1.118;2023-03-14T10:40:01;99304.72;;;16.01
70668;BMP280;58242;51.250;-1.118;2023-03-14T10:42:39;99307.50;;;16.18
70668;BMP280;58242;51.250;-1.118;2023-03-14T10:47:50;99321.28;;;16.76
70668;BMP280;58242;51.250;-1.118;2023-03-14T10:50:27;99332.16;;;16.93
70668;BMP280;58242;51.250;-1.118;2023-03-14T10:52:54;99334.84;;;17.00
70668;BMP280;58242;51.250;-1.118;2023-03-14T10:55:20;99338.34;;;17.04
70668;BMP280;58242;51.250;-1.118;2023-03-14T10:57:45;99344.94;;;17.13
70668;BMP280;58242;51.250;-1.118;2023-03-14T11:00:22;99352.31;;;17.29
70668;BMP280;58242;51.250;-1.118;2023-03-14T11:03:10;99353.94;;;17.81
70668;BMP280;58242;51.250;-1.118;2023-03-14T11:05:48;99353.41;;;18.71
70668;BMP280;58242;51.250;-1.118;2023-03-14T11:08:27;99363.75;;;19.67
70668;BMP280;58242;51.250;-1.118;2023-03-14T11:11:18;99356.72;;;20.58
70668;BMP280;58242;51.250;-1.118;2023-03-14T11:16:34;99378.38;;;22.07
70668;BMP280;58242;51.250;-1.118;2023-03-14T11:22:08;99393.63;;;23.94
70668;BMP280;58242;51.250;-1.118;2023-03-14T11:35:55;99421.97;;;26.55
70668;BMP280;58242;51.250;-1.118;2023-03-14T11:38:30;99421.69;;;27.07
70668;BMP280;58242;51.250;-1.118;2023-03-14T11:40:58;99425.38;;;27.54
70668;BMP280;58242;51.250;-1.118;2023-03-14T11:43:26;99431.31;;;28.03
70668;BMP280;58242;51.250;-1.118;2023-03-14T11:45:54;99443.47;;;28.32
70668;BMP280;58242;51.250;-1.118;2023-03-14T11:48:38;99444.81;;;28.75
70668;BMP280;58242;51.250;-1.118;2023-03-14T11:51:11;99456.00;;;29.33
70668;BMP280;58242;51.250;-1.118;2023-03-14T11:53:48;99458.66;;;29.94
70668;BMP280;58242;51.250;-1.118;2023-03-14T11:56:22;99460.25;;;30.18
70668;BMP280;58242;51.250;-1.118;2023-03-14T11:58:59;99471.09;;;29.81
70668;BMP280;58242;51.250;-1.118;2023-03-14T12:01:37;99468.38;;;29.19
70668;BMP280;58242;51.250;-1.118;2023-03-14T12:07:38;99478.81;;;27.20
70668;BMP280;58242;51.250;-1.118;2023-03-14T12:10:06;99488.88;;;26.33
70668;BMP280;58242;51.250;-1.118;2023-03-14T12:12:32;99489.66;;;25.57
70668;BMP280;58242;51.250;-1.118;2023-03-14T12:14:59;99492.41;;;24.86
70668;BMP280;58242;51.250;-1.118;2023-03-14T12:17:34;99499.97;;;24.17
70668;BMP280;58242;51.250;-1.118;2023-03-14T12:20:19;99497.69;;;23.62
70668;BMP280;58242;51.250;-1.118;2023-03-14T12:22:53;99509.16;;;23.34
70668;BMP280;58242;51.250;-1.118;2023-03-14T12:25:24;99509.09;;;22.97
70668;BMP280;58242;51.250;-1.118;2023-03-14T12:33:12;99516.72;;;21.54
70668;BMP280;58242;51.250;-1.118;2023-03-14T12:35:42;99520.06;;;21.35
70668;BMP280;58242;51.250;-1.118;2023-03-14T12:40:49;99525.41;;;21.09
70668;BMP280;58242;51.250;-1.118;2023-03-14T12:43:28;99521.97;;;21.38
70668;BMP280;58242;51.250;-1.118;2023-03-14T12:48:49;99514.03;;;22.60
70668;BMP280;58242;51.250;-1.118;2023-03-14T12:51:20;99522.63;;;22.59
70668;BMP280;58242;51.250;-1.118;2023-03-14T12:56:39;99530.28;;;22.15
70668;BMP280;58242;51.250;-1.118;2023-03-14T13:04:45;99524.22;;;24.65
70668;BMP280;58242;51.250;-1.118;2023-03-14T13:10:38;99526.31;;;26.84
70668;BMP280;58242;51.250;-1.118;2023-03-14T13:13:24;99517.69;;;27.73
70668;BMP280;58242;51.250;-1.118;2023-03-14T13:15:56;99518.03;;;27.83
70668;BMP280;58242;51.250;-1.118;2023-03-14T13:18:38;99532.47;;;27.54
70668;BMP280;58242;51.250;-1.118;2023-03-14T13:24:01;99524.72;;;27.41
70668;BMP280;58242;51.250;-1.118;2023-03-14T13:26:39;99524.72;;;28.03
70668;BMP280;58242;51.250;-1.118;2023-03-14T13:29:25;99527.44;;;28.63
70668;BMP280;58242;51.250;-1.118;2023-03-14T13:31:53;99534.00;;;29.12
70668;BMP280;58242;51.250;-1.118;2023-03-14T13:34:20;99529.28;;;29.56
70668;BMP280;58242;51.250;-1.118;2023-03-14T13:36:45;99533.81;;;29.94
70668;BMP280;58242;51.250;-1.118;2023-03-14T13:39:17;99532.81;;;30.23
70668;BMP280;58242;51.250;-1.118;2023-03-14T13:41:45;99542.28;;;30.40
70668;BMP280;58242;51.250;-1.118;2023-03-14T13:44:18;99536.69;;;30.57
70668;BMP280;58242;51.250;-1.118;2023-03-14T13:46:47;99541.94;;;30.78
70668;BMP280;58242;51.250;-1.118;2023-03-14T13:49:22;99555.22;;;30.97
70668;BMP280;58242;51.250;-1.118;2023-03-14T13:51:49;99556.03;;;31.12
70668;BMP280;58242;51.250;-1.118;2023-03-14T13:54:16;99553.13;;;31.29
70668;BMP280;58242;51.250;-1.118;2023-03-14T13:56:42;99567.44;;;31.51
70668;BMP280;58242;51.250;-1.118;2023-03-14T13:59:21;99555.25;;;31.71
70668;BMP280;58242;51.250;-1.118;2023-03-14T14:01:47;99561.16;;;31.64
70668;BMP280;58242;51.250;-1.118;2023-03-14T14:04:18;99571.25;;;31.53
70668;BMP280;58242;51.250;-1.118;2023-03-14T14:06:46;99574.44;;;31.38
70668;BMP280;58242;51.250;-1.118;2023-03-14T14:09:18;99573.88;;;31.25
70668;BMP280;58242;51.250;-1.118;2023-03-14T14:11:57;99578.47;;;31.05
70668;BMP280;58242;51.250;-1.118;2023-03-14T14:17:17;99583.91;;;30.51
70668;BMP280;58242;51.250;-1.118;2023-03-14T14:19:43;99599.09;;;29.80
70668;BMP280;58242;51.250;-1.118;2023-03-14T14:22:09;99602.88;;;28.83
70668;BMP280;58242;51.250;-1.118;2023-03-14T14:24:36;99605.94;;;27.83
70668;BMP280;58242;51.250;-1.118;2023-03-14T14:27:33;99603.75;;;26.88
70668;BMP280;58242;51.250;-1.118;2023-03-14T14:30:06;99613.06;;;26.30
70668;BMP280;58242;51.250;-1.118;2023-03-14T14:32:37;99613.03;;;26.18
70668;BMP280;58242;51.250;-1.118;2023-03-14T14:35:03;99618.00;;;26.23
70668;BMP280;58242;51.250;-1.118;2023-03-14T14:37:34;99619.16;;;26.49
70668;BMP280;58242;51.250;-1.118;2023-03-14T14:40:30;99623.66;;;27.04
70668;BMP280;58242;51.250;-1.118;2023-03-14T14:43:03;99619.03;;;27.59
70668;BMP280;58242;51.250;-1.118;2023-03-14T14:45:29;99631.19;;;27.70
70668;BMP280;58242;51.250;-1.118;2023-03-14T14:48:03;99643.00;;;27.34
70668;BMP280;58242;51.250;-1.118;2023-03-14T14:53:30;99641.56;;;25.49
70668;BMP280;58242;51.250;-1.118;2023-03-14T14:55:58;99645.78;;;24.76
70668;BMP280;58242;51.250;-1.118;2023-03-14T14:58:29;99643.78;;;24.61
70668;BMP280;58242;51.250;-1.118;2023-03-14T15:03:33;99644.00;;;25.01
70668;BMP280;58242;51.250;-1.118;2023-03-14T15:06:01;99643.75;;;25.26
70668;BMP280;58242;51.250;-1.118;2023-03-14T15:08:26;99650.13;;;25.51